createdAt,value
2023-02-09T00:02:11.503Z,47.73
2023-02-09T00:04:40.593Z,39.77
2023-02-09T00:07:08.243Z,38.43
2023-02-09T00:09:36.082Z,43.73
2023-02-09T00:12:21.545Z,41.97
2023-02-09T00:14:50.711Z,40.00
2023-02-09T00:17:18.286Z,35.33
2023-02-09T00:19:48.370Z,39.37
2023-02-09T00:22:17.061Z,37.70
2023-02-09T00:24:46.125Z,41.37
2023-02-09T00:27:13.771Z,38.77
2023-02-09T00:29:41.570Z,37.73
2023-02-09T00:32:09.345Z,44.33
2023-02-09T00:34:40.488Z,39.07
2023-02-09T00:37:10.188Z,35.10
2023-02-09T00:39:37.922Z,41.90
2023-02-09T00:42:08.449Z,42.30
2023-02-09T00:44:41.567Z,36.70
2023-02-09T00:47:10.156Z,37.37
2023-02-09T00:49:42.523Z,39.63
2023-02-09T00:52:11.678Z,43.73
2023-02-09T00:54:39.347Z,44.60
2023-02-09T00:57:07.121Z,39.43
2023-02-09T00:59:35.835Z,41.47
2023-02-09T01:02:04.836Z,39.40
2023-02-09T01:04:32.591Z,43.30
2023-02-09T01:07:00.352Z,41.30
2023-02-09T01:09:29.727Z,42.40
2023-02-09T01:11:57.407Z,45.93
2023-02-09T01:14:25.242Z,41.37
2023-02-09T01:16:53.000Z,43.60
2023-02-09T01:19:24.628Z,43.37
2023-02-09T01:21:52.652Z,44.07
2023-02-09T01:24:21.505Z,34.80
2023-02-09T01:26:50.949Z,45.00
2023-02-09T01:29:20.383Z,36.77
2023-02-09T01:31:49.496Z,42.43
2023-02-09T01:34:18.978Z,40.80
2023-02-09T01:36:48.346Z,35.67
2023-02-09T01:39:16.181Z,42.23
2023-02-09T01:41:45.015Z,41.43
2023-02-09T01:44:50.265Z,42.13
2023-02-09T01:47:21.135Z,38.83
2023-02-09T01:49:50.981Z,39.00
2023-02-09T01:52:22.075Z,40.20
2023-02-09T01:54:54.963Z,40.77
2023-02-09T01:57:28.501Z,33.90
2023-02-09T02:00:01.349Z,47.00
2023-02-09T02:02:30.572Z,41.47
2023-02-09T02:04:58.367Z,44.47
2023-02-09T02:07:30.429Z,43.67
2023-02-09T02:09:58.674Z,37.63
2023-02-09T02:12:27.137Z,35.40
2023-02-09T02:14:54.802Z,33.40
2023-02-09T02:17:38.489Z,36.73
2023-02-09T02:20:30.891Z,37.90
2023-02-09T02:23:11.427Z,39.73
2023-02-09T02:26:12.397Z,32.70
2023-02-09T02:28:48.249Z,34.57
2023-02-09T02:31:35.895Z,36.13
2023-02-09T02:34:09.215Z,38.73
2023-02-09T02:36:43.413Z,40.40
2023-02-09T02:39:18.141Z,32.40
2023-02-09T02:42:09.720Z,39.53
2023-02-09T02:44:41.674Z,43.07
2023-02-09T02:47:15.016Z,36.73
2023-02-09T02:49:46.110Z,35.50
2023-02-09T02:52:15.480Z,28.83
2023-02-09T02:54:47.625Z,37.70
2023-02-09T02:57:18.836Z,39.00
2023-02-09T02:59:53.241Z,39.73
2023-02-09T03:02:24.402Z,36.77
2023-02-09T03:04:57.352Z,37.80
2023-02-09T03:07:25.601Z,34.67
2023-02-09T03:09:55.192Z,33.93
2023-02-09T03:12:33.346Z,29.20
2023-02-09T03:15:14.770Z,38.77
2023-02-09T03:17:49.166Z,29.97
2023-02-09T03:20:26.731Z,35.60
2023-02-09T03:22:58.681Z,33.50
2023-02-09T03:25:31.445Z,30.63
2023-02-09T03:28:04.317Z,29.17
2023-02-09T03:30:33.910Z,26.33
2023-02-09T03:33:04.827Z,30.77
2023-02-09T03:35:38.284Z,36.47
2023-02-09T03:38:09.373Z,32.43
2023-02-09T03:40:37.268Z,33.13
2023-02-09T03:43:05.069Z,30.07
2023-02-09T03:45:32.924Z,34.77
2023-02-09T03:48:09.234Z,36.00
2023-02-09T03:50:38.630Z,31.20
2023-02-09T03:53:08.773Z,32.67
2023-02-09T03:55:37.133Z,31.03
2023-02-09T03:58:04.823Z,32.60
2023-02-09T04:00:33.701Z,31.93
2023-02-09T04:03:01.609Z,30.47
2023-02-09T04:05:30.437Z,26.90
2023-02-09T04:08:00.379Z,29.77
2023-02-09T04:10:28.440Z,32.37
2023-02-09T04:12:56.118Z,28.83
2023-02-09T04:15:23.831Z,29.97
2023-02-09T04:17:53.800Z,34.90
2023-02-09T04:20:21.518Z,33.50
2023-02-09T04:22:49.264Z,27.60
2023-02-09T04:25:18.608Z,29.00
2023-02-09T04:27:46.263Z,27.20
2023-02-09T04:30:15.387Z,28.10
2023-02-09T04:32:43.137Z,30.10
2023-02-09T04:35:10.893Z,30.37
2023-02-09T04:37:40.856Z,26.07
2023-02-09T04:40:09.907Z,37.83
2023-02-09T04:42:38.839Z,29.13
2023-02-09T04:45:07.316Z,24.23
2023-02-09T04:47:34.935Z,29.27
2023-02-09T04:50:02.529Z,27.73
2023-02-09T04:52:30.217Z,33.13
2023-02-09T04:54:57.872Z,25.83
2023-02-09T04:57:43.412Z,34.40
2023-02-09T05:00:15.125Z,32.87
2023-02-09T05:02:44.462Z,25.10
2023-02-09T05:05:12.156Z,27.30
2023-02-09T05:07:42.254Z,27.47
2023-02-09T05:10:10.370Z,28.03
2023-02-09T05:12:38.198Z,29.03
2023-02-09T05:15:06.373Z,26.90
2023-02-09T05:17:35.549Z,23.97
2023-02-09T05:20:03.555Z,25.47
2023-02-09T05:22:32.508Z,25.53
2023-02-09T05:25:00.249Z,23.90
2023-02-09T05:27:27.900Z,27.47
2023-02-09T05:29:55.752Z,21.70
2023-02-09T05:32:23.510Z,19.60
2023-02-09T05:34:52.605Z,23.90
2023-02-09T05:37:20.330Z,21.70
2023-02-09T05:39:51.005Z,26.03
2023-02-09T05:42:18.736Z,25.23
2023-02-09T05:44:47.808Z,19.47
2023-02-09T05:47:17.351Z,23.50
2023-02-09T05:49:45.122Z,25.93
2023-02-09T05:52:16.619Z,24.17
2023-02-09T05:54:45.830Z,23.77
2023-02-09T05:57:13.803Z,25.30
2023-02-09T05:59:41.547Z,28.00
2023-02-09T06:02:09.623Z,24.73
2023-02-09T06:04:39.479Z,21.57
2023-02-09T06:07:09.918Z,28.43
2023-02-09T06:09:40.300Z,22.47
2023-02-09T06:12:08.117Z,24.67
2023-02-09T06:14:37.606Z,20.13
2023-02-09T06:17:05.385Z,25.37
2023-02-09T06:19:36.649Z,18.73
2023-02-09T06:22:04.734Z,20.10
2023-02-09T06:24:32.437Z,24.83
2023-02-09T06:27:02.439Z,20.60
2023-02-09T06:29:31.251Z,20.43
2023-02-09T06:32:07.212Z,23.10
2023-02-09T06:34:35.488Z,18.50
2023-02-09T06:37:03.675Z,21.27
2023-02-09T06:39:36.330Z,18.10
2023-02-09T06:42:06.581Z,19.50
2023-02-09T06:44:34.292Z,17.97
2023-02-09T06:47:04.682Z,23.40
2023-02-09T06:49:34.772Z,22.20
2023-02-09T06:52:03.978Z,18.03
2023-02-09T06:54:31.675Z,21.40
2023-02-09T06:56:59.380Z,16.00
2023-02-09T06:59:28.380Z,18.33
2023-02-09T07:01:56.156Z,18.90
2023-02-09T07:04:23.979Z,21.70
2023-02-09T07:06:51.731Z,23.80
2023-02-09T07:09:19.765Z,22.07
2023-02-09T07:11:47.577Z,22.47
2023-02-09T07:14:15.924Z,16.90
2023-02-09T07:16:46.065Z,21.70
2023-02-09T07:19:14.101Z,20.60
2023-02-09T07:21:41.841Z,19.37
2023-02-09T07:24:09.692Z,18.20
2023-02-09T07:26:37.367Z,20.67
2023-02-09T07:29:05.073Z,15.10
2023-02-09T07:31:32.928Z,21.70
2023-02-09T07:34:01.993Z,20.07
2023-02-09T07:36:29.800Z,21.23
2023-02-09T07:38:58.222Z,20.17
2023-02-09T07:41:28.883Z,18.03
2023-02-09T07:43:57.451Z,22.77
2023-02-09T07:46:25.622Z,26.70
2023-02-09T07:48:59.460Z,21.03
2023-02-09T07:51:32.358Z,18.60
2023-02-09T07:54:01.580Z,17.07
2023-02-09T07:56:30.043Z,19.40
2023-02-09T07:58:58.364Z,19.73
2023-02-09T08:01:29.087Z,20.87
2023-02-09T08:03:57.525Z,22.17
2023-02-09T08:06:42.131Z,22.93
2023-02-09T08:09:13.428Z,20.37
2023-02-09T08:11:47.392Z,24.80
2023-02-09T08:14:19.785Z,19.87
2023-02-09T08:16:50.379Z,20.97
2023-02-09T08:19:21.095Z,23.67
2023-02-09T08:21:51.204Z,21.17
2023-02-09T08:24:21.585Z,22.67
2023-02-09T08:26:50.631Z,18.73
2023-02-09T08:29:18.269Z,16.77
2023-02-09T08:31:46.508Z,16.73
2023-02-09T08:34:14.643Z,20.53
2023-02-09T08:36:45.290Z,20.23
2023-02-09T08:39:14.398Z,9.37
2023-02-09T08:41:42.159Z,15.73
2023-02-09T08:44:09.933Z,15.13
2023-02-09T08:46:39.026Z,19.10
2023-02-09T08:49:06.939Z,23.30
2023-02-09T08:51:34.796Z,20.00
2023-02-09T08:54:02.711Z,16.17
2023-02-09T08:56:31.760Z,17.40
2023-02-09T08:58:59.479Z,19.23
2023-02-09T09:01:27.401Z,12.80
2023-02-09T09:03:55.641Z,22.87
2023-02-09T09:06:23.499Z,21.80
2023-02-09T09:08:51.992Z,17.43
2023-02-09T09:11:20.776Z,18.27
2023-02-09T09:13:49.925Z,17.83
2023-02-09T09:16:19.436Z,20.80
2023-02-09T09:18:47.210Z,19.10
2023-02-09T09:21:16.826Z,23.00
2023-02-09T09:23:44.857Z,25.60
2023-02-09T09:26:12.877Z,22.13
2023-02-09T09:28:40.563Z,16.90
2023-02-09T09:31:10.535Z,16.07
2023-02-09T09:33:38.373Z,13.70
2023-02-09T09:36:07.842Z,13.90
2023-02-09T09:38:36.630Z,13.93
2023-02-09T09:41:05.195Z,11.90
2023-02-09T09:43:35.808Z,13.20
2023-02-09T09:46:05.144Z,13.73
2023-02-09T09:48:42.029Z,15.83
2023-02-09T09:51:13.954Z,14.33
2023-02-09T09:53:44.270Z,15.50
2023-02-09T09:56:14.023Z,15.77
2023-02-09T09:58:44.876Z,14.00
2023-02-09T10:01:15.036Z,17.37
2023-02-09T10:03:44.728Z,14.23
2023-02-09T10:06:16.620Z,27.23
2023-02-09T10:08:49.887Z,15.37
2023-02-09T10:11:18.772Z,14.20
2023-02-09T10:13:50.754Z,21.40
2023-02-09T10:16:21.882Z,18.53
2023-02-09T10:18:53.262Z,17.80
2023-02-09T10:21:21.172Z,18.87
2023-02-09T10:23:50.885Z,19.63
2023-02-09T10:26:24.263Z,10.03
2023-02-09T10:28:54.153Z,14.73
2023-02-09T10:31:25.340Z,17.07
2023-02-09T10:33:59.287Z,16.80
2023-02-09T10:36:30.264Z,19.50
2023-02-09T10:39:14.392Z,14.13
2023-02-09T10:41:44.371Z,12.10
2023-02-09T10:44:21.063Z,21.83
2023-02-09T10:46:49.530Z,15.87
2023-02-09T10:49:35.261Z,17.17
2023-02-09T10:52:19.040Z,17.40
2023-02-09T10:54:51.456Z,18.90
2023-02-09T10:57:25.039Z,20.57
2023-02-09T10:59:54.546Z,7.47
2023-02-09T11:02:36.979Z,14.07
2023-02-09T11:05:28.831Z,16.53
2023-02-09T11:08:02.112Z,16.53
2023-02-09T11:10:32.968Z,23.07
2023-02-09T11:13:01.024Z,14.90
2023-02-09T11:15:41.640Z,17.70
2023-02-09T11:18:16.562Z,14.80
2023-02-09T11:20:52.593Z,17.83
2023-02-09T11:23:36.913Z,17.67
2023-02-09T11:26:14.479Z,15.00
2023-02-09T11:28:52.764Z,18.93
2023-02-09T11:31:55.301Z,15.43
2023-02-09T11:34:45.391Z,15.60
2023-02-09T11:37:26.191Z,13.47
2023-02-09T11:40:02.759Z,18.70
2023-02-09T11:42:50.617Z,12.73
2023-02-09T11:45:23.500Z,6.70
2023-02-09T11:48:01.315Z,13.33
2023-02-09T11:50:34.780Z,12.97
2023-02-09T11:53:12.754Z,8.67
2023-02-09T11:55:45.145Z,16.17
2023-02-09T11:58:29.051Z,17.33
2023-02-09T12:01:14.585Z,10.60
2023-02-09T12:03:56.259Z,13.63
2023-02-09T12:06:30.252Z,16.13
2023-02-09T12:09:09.518Z,14.10
2023-02-09T12:11:46.431Z,16.33
2023-02-09T12:14:29.181Z,18.87
2023-02-09T12:17:01.615Z,9.43
2023-02-09T12:19:35.815Z,10.00
2023-02-09T12:22:37.121Z,10.97
2023-02-09T12:25:22.816Z,15.97
2023-02-09T12:28:13.504Z,15.30
2023-02-09T12:31:03.225Z,13.90
2023-02-09T12:33:36.261Z,20.00
2023-02-09T12:36:07.437Z,19.67
2023-02-09T12:38:54.525Z,15.40
2023-02-09T12:41:28.104Z,17.37
2023-02-09T12:44:26.917Z,20.03
2023-02-09T12:46:58.030Z,14.87
2023-02-09T12:49:33.771Z,18.87
2023-02-09T12:52:16.264Z,17.13
2023-02-09T12:54:48.900Z,12.23
2023-02-09T12:57:53.633Z,16.10
2023-02-09T13:00:42.102Z,6.80
2023-02-09T13:03:18.920Z,14.67
2023-02-09T13:05:48.827Z,9.27
2023-02-09T13:08:23.539Z,15.63
2023-02-09T13:10:58.393Z,12.90
2023-02-09T13:13:34.772Z,14.70
2023-02-09T13:16:32.383Z,15.87
2023-02-09T13:19:13.402Z,12.80
2023-02-09T13:21:57.185Z,15.70
2023-02-09T13:24:35.369Z,15.53
2023-02-09T13:27:04.419Z,15.57
2023-02-09T13:29:33.772Z,9.30
2023-02-09T13:32:22.353Z,13.27
2023-02-09T13:34:58.597Z,18.13
2023-02-09T13:37:33.820Z,14.07
2023-02-09T13:40:04.069Z,10.10
2023-02-09T13:42:37.087Z,12.43
2023-02-09T13:45:17.737Z,19.50
2023-02-09T13:47:46.166Z,19.03
2023-02-09T13:50:17.354Z,12.23
2023-02-09T13:52:45.296Z,20.03
2023-02-09T13:55:16.379Z,22.27
2023-02-09T13:57:46.126Z,18.03
2023-02-09T14:00:24.687Z,18.63
2023-02-09T14:02:56.202Z,15.93
2023-02-09T14:05:34.275Z,18.23
2023-02-09T14:08:02.969Z,14.17
2023-02-09T14:10:34.736Z,10.23
2023-02-09T14:13:05.571Z,9.97
2023-02-09T14:15:55.982Z,13.67
2023-02-09T14:18:29.888Z,12.07
2023-02-09T14:21:05.262Z,14.00
2023-02-09T14:23:37.856Z,14.03
2023-02-09T14:26:08.060Z,13.63
2023-02-09T14:28:37.868Z,16.70
2023-02-09T14:31:08.063Z,16.93
2023-02-09T14:33:38.514Z,15.23
2023-02-09T14:36:25.706Z,5.67
2023-02-09T14:38:55.244Z,10.93
2023-02-09T14:41:31.436Z,16.50
2023-02-09T14:44:01.644Z,13.57
2023-02-09T14:46:47.555Z,15.07
2023-02-09T14:49:16.233Z,18.43
2023-02-09T14:51:46.325Z,14.50
2023-02-09T14:54:24.266Z,13.80
2023-02-09T14:56:54.582Z,16.00
2023-02-09T14:59:23.277Z,15.30
2023-02-09T15:01:53.111Z,10.53
2023-02-09T15:04:21.171Z,16.57
2023-02-09T15:06:59.500Z,21.07
2023-02-09T15:09:33.801Z,18.63
2023-02-09T15:12:07.698Z,19.77
2023-02-09T15:14:41.453Z,12.87
2023-02-09T15:17:14.975Z,11.50
2023-02-09T15:19:43.572Z,12.77
2023-02-09T15:22:20.808Z,16.97
2023-02-09T15:24:51.786Z,15.20
2023-02-09T15:27:27.043Z,20.87
2023-02-09T15:29:57.979Z,17.17
2023-02-09T15:32:29.881Z,17.47
2023-02-09T15:34:58.593Z,13.00
2023-02-09T15:37:30.581Z,14.40
2023-02-09T15:40:02.270Z,19.53
2023-02-09T15:42:49.313Z,17.50
2023-02-09T15:45:34.055Z,18.20
2023-02-09T15:48:01.975Z,20.47
2023-02-09T15:50:30.846Z,17.97
2023-02-09T15:53:00.154Z,21.77
2023-02-09T15:55:28.639Z,17.17
2023-02-09T15:57:56.978Z,21.30
2023-02-09T16:00:27.136Z,14.70
2023-02-09T16:02:57.755Z,24.90
2023-02-09T16:05:28.120Z,21.10
2023-02-09T16:07:56.463Z,16.10
2023-02-09T16:10:27.496Z,14.73
2023-02-09T16:12:55.756Z,19.07
2023-02-09T16:15:25.882Z,19.07
2023-02-09T16:17:54.274Z,13.70
2023-02-09T16:20:23.722Z,18.33
2023-02-09T16:22:55.120Z,18.37
2023-02-09T16:25:28.221Z,24.37
2023-02-09T16:27:57.484Z,22.50
2023-02-09T16:30:27.532Z,18.50
2023-02-09T16:32:56.830Z,14.83
2023-02-09T16:35:25.808Z,13.83
2023-02-09T16:37:55.971Z,17.90
2023-02-09T16:40:28.583Z,17.03
2023-02-09T16:42:58.229Z,19.00
2023-02-09T16:45:28.614Z,20.57
2023-02-09T16:47:59.785Z,17.63
2023-02-09T16:50:32.931Z,21.33
2023-02-09T16:53:03.213Z,17.67
2023-02-09T16:55:34.119Z,20.37
2023-02-09T16:58:04.601Z,22.97
2023-02-09T17:00:36.943Z,20.13
2023-02-09T17:03:13.968Z,20.43
2023-02-09T17:05:44.491Z,19.37
2023-02-09T17:08:18.052Z,17.20
2023-02-09T17:11:01.309Z,20.33
2023-02-09T17:13:30.933Z,16.90
2023-02-09T17:16:02.315Z,17.47
2023-02-09T17:18:33.357Z,15.73
2023-02-09T17:21:05.370Z,13.47
2023-02-09T17:23:33.133Z,11.63
2023-02-09T17:26:02.987Z,17.83
2023-02-09T17:28:31.664Z,17.47
2023-02-09T17:31:04.825Z,11.93
2023-02-09T17:33:36.264Z,17.27
2023-02-09T17:38:54.421Z,18.43
2023-02-09T17:41:29.570Z,13.47
2023-02-09T17:44:17.557Z,11.43
2023-02-09T17:46:49.604Z,12.97
2023-02-09T17:49:17.433Z,16.33
2023-02-09T17:51:47.448Z,18.40
2023-02-09T17:54:17.756Z,18.63
2023-02-09T17:56:48.376Z,14.60
2023-02-09T17:59:19.707Z,9.23
2023-02-09T18:01:50.652Z,9.67
2023-02-09T18:04:23.447Z,14.20
2023-02-09T18:06:51.500Z,19.73
2023-02-09T18:09:19.321Z,17.53
2023-02-09T18:12:02.102Z,10.47
2023-02-09T18:14:32.926Z,18.03
2023-02-09T18:17:00.901Z,15.37
2023-02-09T18:19:28.676Z,17.70
2023-02-09T18:21:59.252Z,8.40
2023-02-09T18:24:30.046Z,9.23
2023-02-09T18:26:59.380Z,11.00
2023-02-09T18:29:30.136Z,12.87
2023-02-09T18:31:58.909Z,16.63
2023-02-09T18:34:29.069Z,12.13
2023-02-09T18:36:57.126Z,17.80
2023-02-09T18:39:26.689Z,20.13
2023-02-09T18:41:55.221Z,20.27
2023-02-09T18:44:29.334Z,17.20
2023-02-09T18:47:00.340Z,17.50
2023-02-09T18:49:28.231Z,20.37
2023-02-09T18:51:57.009Z,16.67
2023-02-09T18:54:24.949Z,19.30
2023-02-09T18:56:54.557Z,20.60
2023-02-09T18:59:30.856Z,13.83
2023-02-09T19:01:59.074Z,17.13
2023-02-09T19:04:27.082Z,21.00
2023-02-09T19:06:55.328Z,11.17
2023-02-09T19:09:23.205Z,19.47
2023-02-09T19:11:52.022Z,17.83
2023-02-09T19:14:38.113Z,19.77
2023-02-09T19:17:09.335Z,14.13
2023-02-09T19:19:40.223Z,20.47
2023-02-09T19:22:15.061Z,16.60
2023-02-09T19:24:43.014Z,21.60
2023-02-09T19:27:11.577Z,17.30
2023-02-09T19:29:41.853Z,22.93
2023-02-09T19:32:12.630Z,14.20
2023-02-09T19:34:45.393Z,12.80
2023-02-09T19:37:16.267Z,17.80
2023-02-09T19:39:52.693Z,19.07
2023-02-09T19:42:21.567Z,19.00
2023-02-09T19:44:50.224Z,22.73
2023-02-09T19:47:25.490Z,13.80
2023-02-09T19:49:53.530Z,19.03
2023-02-09T19:52:21.462Z,21.83
2023-02-09T19:54:49.954Z,17.50
2023-02-09T19:57:17.747Z,17.50
2023-02-09T19:59:45.527Z,24.03
2023-02-09T20:02:13.937Z,21.80
2023-02-09T20:04:45.872Z,19.57
2023-02-09T20:07:14.813Z,21.10
2023-02-09T20:09:43.015Z,18.40
2023-02-09T20:12:10.789Z,23.73
2023-02-09T20:14:38.545Z,23.63
2023-02-09T20:17:06.212Z,25.33
2023-02-09T20:19:36.877Z,26.97
2023-02-09T20:22:06.038Z,28.73
2023-02-09T20:24:34.718Z,23.93
2023-02-09T20:27:02.522Z,28.53
2023-02-09T20:29:30.308Z,21.97
2023-02-09T20:31:58.527Z,26.33
2023-02-09T20:34:26.936Z,18.93
2023-02-09T20:36:58.254Z,24.60
2023-02-09T20:39:27.828Z,22.70
2023-02-09T20:42:16.697Z,24.10
2023-02-09T20:45:03.178Z,25.40
2023-02-09T20:47:31.119Z,24.53
2023-02-09T20:50:00.420Z,20.77
2023-02-09T20:52:31.288Z,24.73
2023-02-09T20:55:00.633Z,25.73
2023-02-09T20:57:30.216Z,24.37
2023-02-09T20:59:58.091Z,20.27
2023-02-09T21:02:28.970Z,24.47
2023-02-09T21:04:57.917Z,23.13
2023-02-09T21:07:26.429Z,21.20
2023-02-09T21:09:56.657Z,24.83
2023-02-09T21:12:25.864Z,18.40
2023-02-09T21:14:53.606Z,17.13
2023-02-09T21:17:22.186Z,24.40
2023-02-09T21:19:50.119Z,21.97
2023-02-09T21:22:18.273Z,25.50
2023-02-09T21:24:46.159Z,17.57
2023-02-09T21:27:14.451Z,22.60
2023-02-09T21:29:43.403Z,23.17
2023-02-09T21:32:13.967Z,28.13
2023-02-09T21:34:41.631Z,35.13
2023-02-09T21:37:12.723Z,23.30
2023-02-09T21:39:40.489Z,24.13
2023-02-09T21:42:29.434Z,24.37
2023-02-09T21:44:59.411Z,24.27
2023-02-09T21:47:28.294Z,25.73
2023-02-09T21:49:56.055Z,26.60
2023-02-09T21:52:24.620Z,29.73
2023-02-09T21:54:53.757Z,30.07
2023-02-09T21:57:23.157Z,24.20
2023-02-09T21:59:50.868Z,29.07
2023-02-09T22:02:21.583Z,33.50
2023-02-09T22:04:49.746Z,28.20
2023-02-09T22:07:17.622Z,31.53
2023-02-09T22:09:45.275Z,26.07
2023-02-09T22:12:13.001Z,27.27
2023-02-09T22:14:40.661Z,30.67
2023-02-09T22:17:08.609Z,33.90
2023-02-09T22:19:37.769Z,26.10
2023-02-09T22:22:05.637Z,35.70
2023-02-09T22:24:34.742Z,34.00
2023-02-09T22:27:02.552Z,29.40
2023-02-09T22:29:33.092Z,31.40
2023-02-09T22:32:00.810Z,31.03
2023-02-09T22:34:28.421Z,29.57
2023-02-09T22:36:57.426Z,29.17
2023-02-09T22:39:25.158Z,33.93
2023-02-09T22:41:57.885Z,27.87
2023-02-09T22:44:29.786Z,34.70
2023-02-09T22:46:58.678Z,28.90
2023-02-09T22:49:26.563Z,32.40
2023-02-09T22:51:54.199Z,38.23
2023-02-09T22:54:23.493Z,33.23
2023-02-09T22:56:52.218Z,35.80
2023-02-09T22:59:20.118Z,35.53
2023-02-09T23:01:48.515Z,29.10
2023-02-09T23:04:16.374Z,28.50
2023-02-09T23:06:44.147Z,43.77
2023-02-09T23:09:13.191Z,30.37
2023-02-09T23:11:44.102Z,35.00
2023-02-09T23:14:14.297Z,37.97
2023-02-09T23:16:44.206Z,38.43
2023-02-09T23:19:15.343Z,40.33
2023-02-09T23:21:44.653Z,43.87
2023-02-09T23:24:13.398Z,34.87
2023-02-09T23:26:45.445Z,30.87
2023-02-09T23:29:15.663Z,40.13
2023-02-09T23:31:44.496Z,39.60
2023-02-09T23:34:15.120Z,36.73
2023-02-09T23:36:43.163Z,40.77
2023-02-09T23:39:15.258Z,32.10
2023-02-09T23:41:44.637Z,47.43
2023-02-09T23:44:13.117Z,41.43
2023-02-09T23:46:41.639Z,36.90
2023-02-09T23:49:09.370Z,38.00
2023-02-09T23:51:37.391Z,38.60
2023-02-09T23:54:07.027Z,38.17
2023-02-09T23:56:37.053Z,40.87
2023-02-09T23:59:07.390Z,45.80
